• Join FlightAware (Why Join?)
  • Login
  • US Flag 
03:40PM EDT


 

Airport Tracker/Info


-or-


 

Live Flight TrackerFlight Track Log ✈ SWA2236 ✈ 09-Sep-2013 ✈ KDTW - KMDW

Flight Track Log - Related Links

Times and Time Zones

All times are in EDT time to prevent confusion due to time zone crossing. See the SWA2236 flight status page for this flight to view local times or setup timezone preferences in your user account.

Time Position Orientation Groundspeed Altitude Reporting Facility
EDT Latitude Longitude Course Direction KTS MPH feet Rate Location/Type
08:11AM 42.2017 -83.3583 228° Southwest 155 178 1,400  Level Cleveland Center
08:12AM 42.1692 -83.4072 228° Southwest 201 231 4,200 2,880 Climbing Cleveland Center
08:13AM 42.1336 -83.4897 240° Southwest 267 307 7,300 3,240 Climbing Cleveland Center
08:15AM 42.1625 -83.5806 293° West 286 329 10,800 2,640 Climbing Cleveland Center
08:15AM 42.1664 -83.6006 285° West 314 361 11,000 1,560 Climbing Cleveland Center
08:16AM 42.2089 -83.7203 296° West 327 376 13,000 1,500 Climbing Cleveland Center
08:17AM 42.2286 -83.8361 283° West 334 384 14,100 2,100 Climbing Cleveland Center
08:18AM 42.2628 -83.9558 291° West 334 384 17,200 2,880 Climbing Cleveland Center
08:19AM 42.2506 -84.0814 263° West 334 384 19,900 2,340 Climbing Cleveland Center
08:20AM 42.1972 -84.1906 237° Southwest 329 379 21,900 1,020 Climbing Cleveland Center
08:21AM 42.1458 -84.2969 237° Southwest 336 387 22,000  Climbing Cleveland Center
08:22AM 42.1125 -84.4211 250° West 330 380 22,000  Level Cleveland Center
08:23AM 42.1064 -84.5439 266° West 323 372 22,000  Level Cleveland Center
08:24AM 42.0906 -84.6892 262° West 335 386 22,000  Level Chicago Center
08:25AM 42.0206 -84.8103 232° Southwest 339 390 22,000  Level Chicago Center
08:26AM 41.9631 -84.9031 230° Southwest 341 392 22,000  Level Chicago Center
08:27AM 41.9017 -85.0025 230° Southwest 345 397 22,000  Level Chicago Center
08:28AM 41.8392 -85.1011 230° Southwest 346 398 22,000  Level Chicago Center
08:29AM 41.7650 -85.2197 230° Southwest 348 400 22,000  Level Chicago Center
08:30AM 41.7036 -85.3178 230° Southwest 346 398 22,000  Level Chicago Center
08:31AM 41.6367 -85.4211 229° Southwest 343 395 22,000  Level Chicago Center
08:33AM 41.5975 -85.5283 244° Southwest 331 381 22,000 -240 Level Chicago Center
08:34AM 41.5781 -85.6608 259° West 340 391 21,600 -780 Descending Chicago Center
08:35AM 41.5592 -85.7950 259° West 364 419 20,400 -1,560 Descending Chicago Center
08:36AM 41.5397 -85.9256 259° West 359 413 18,400 -1,920 Descending Chicago Center
08:37AM 41.5228 -86.0533 260° West 352 405 16,500 -1,800 Descending Chicago Center
08:38AM 41.5231 -86.1783 270° West 336 387 14,800 -2,040 Descending Chicago Center
08:39AM 41.5236 -86.3142 270° West 360 414 12,400 -2,040 Descending Chicago Center
08:40AM 41.5233 -86.4694 270° West 349 402 10,600 -1,140 Descending Chicago Center
08:41AM 41.5206 -86.5883 268° West 325 374 10,100 -300 Descending Chicago Center
08:42AM 41.5208 -86.7228 270° West 330 380 10,100  Level Chicago Center
08:43AM 41.5189 -86.8431 269° West 325 374 10,100 -300 Level Chicago Center
08:44AM 41.5172 -86.9461 269° West 284 327 9,500 -1,080 Descending Chicago Center
08:45AM 41.5233 -87.0439 275° West 269 310 7,900 -1,560 Descending Chicago Center
08:46AM 41.5500 -87.1386 291° West 275 316 6,300 -960 Descending Chicago Center
08:47AM 41.5728 -87.2303 288° West 267 307 6,000 -180 Descending Chicago Center
08:48AM 41.6006 -87.3403 289° West 263 303 6,000  Level Chicago Center
08:49AM 41.6236 -87.4319 289° West 263 303 6,000 -540 Level Chicago Center
08:50AM 41.6456 -87.5175 289° West 254 292 4,900 -1,140 Descending Chicago Center
08:51AM 41.6672 -87.5919 291° West 236 272 3,700 -1,140 Descending Chicago Center
08:52AM 41.7089 -87.6467 316° Northwest 220 253 2,600 -900 Descending Chicago Center
08:53AM 41.7669 -87.6719 342° North 207 238 1,900 -540 Descending Chicago Center
08:54AM 41.8069 -87.6906 341° North 177 204 1,600 -480 Descending Chicago Center
08:55AM 41.8044 -87.7303 265° West 152 175 1,000 1,560 Descending Chicago Center
08:57AM 41.7833 -87.7500 334° Northwest  Level FlightAware Approximate
09:07AM 26.5660 -80.8120 334° Northwest 418 481 21,700  Level FlightAware
09:07AM 26.6250 -80.8600 324° Northwest 422 486 22,600 1,620 Climbing FlightAware
09:08AM 26.6800 -80.9060 323° Northwest 426 490 23,600 1,680 Climbing FlightAware
09:08AM 26.7360 -80.9530 323° Northwest 429 494 24,600 1,500 Climbing FlightAware
09:09AM 26.7910 -81.0000 323° Northwest 439 505 25,400 1,440 Climbing FlightAware
09:10AM 26.8480 -81.0480 323° Northwest 442 509 26,300 1,320 Climbing FlightAware
09:10AM 26.9040 -81.0940 324° Northwest 446 513 27,000 1,140 Climbing FlightAware
09:11AM 26.9550 -81.1370 323° Northwest 444 511 27,600 1,080 Climbing FlightAware
09:11AM 27.0050 -81.1790 323° Northwest 457 526 28,100 1,020 Climbing FlightAware
09:12AM 27.1050 -81.2630 323° Northwest 467 537 29,100 1,200 Climbing FlightAware
09:13AM 27.1690 -81.3170 323° Northwest 464 534 30,000 1,380 Climbing FlightAware
09:13AM 27.2290 -81.3680 323° Northwest 463 533 30,800 1,380 Climbing FlightAware
09:14AM 27.2870 -81.4170 323° Northwest 461 531 31,600 1,320 Climbing FlightAware
09:14AM 27.3500 -81.4700 323° Northwest 459 528 32,400 1,200 Climbing FlightAware
09:15AM 27.4020 -81.5150 322° Northwest 458 527 33,000 1,200 Climbing FlightAware
09:16AM 27.4650 -81.5680 323° Northwest 455 524 33,800 1,200 Climbing FlightAware
09:16AM 27.5230 -81.6170 323° Northwest 451 519 34,500 1,140 Climbing FlightAware
09:17AM 27.5820 -81.6680 323° Northwest 448 516 35,200 900 Climbing FlightAware
09:17AM 27.6350 -81.7130 323° Northwest 447 514 35,600 660 Climbing FlightAware
09:18AM 27.6980 -81.7670 323° Northwest 449 517 36,000 300 Climbing FlightAware
09:19AM 27.7580 -81.8180 323° Northwest 449 517 36,000  Level FlightAware
09:19AM 27.8100 -81.8630 323° Northwest 448 516 36,000  Level FlightAware
09:20AM 27.8550 -81.9010 323° Northwest 447 514 36,000  Level FlightAware
09:20AM 27.9140 -81.9520 323° Northwest 446 513 36,000  Level FlightAware
09:21AM 27.9750 -82.0040 323° Northwest 446 513 36,000  Level FlightAware
09:21AM 28.0330 -82.0550 322° Northwest 444 511 36,000  Level FlightAware
09:22AM 28.0870 -82.1030 322° Northwest 444 511 36,000  Level FlightAware
09:23AM 28.1450 -82.1550 322° Northwest 442 509 36,000  Level FlightAware
09:23AM 28.2030 -82.2070 322° Northwest 441 507 36,000  Level FlightAware
09:24AM 28.2600 -82.2580 322° Northwest 439 505 36,000  Level FlightAware
09:24AM 28.3160 -82.3080 322° Northwest 438 504 36,000  Level FlightAware
09:25AM 28.3700 -82.3560 322° Northwest 435 501 36,000  Level FlightAware
09:25AM 28.4230 -82.4040 321° Northwest 433 498 36,000  Level FlightAware
09:26AM 28.4800 -82.4550 322° Northwest 432 497 36,000  Level FlightAware
09:27AM 28.5350 -82.5110 318° Northwest 433 498 36,000  Level FlightAware
09:27AM 28.5830 -82.5610 318° Northwest 435 501 36,000  Level FlightAware
09:28AM 28.6310 -82.6120 317° Northwest 437 503 36,000  Level FlightAware
09:28AM 28.6870 -82.6720 317° Northwest 439 505 36,000  Level FlightAware
09:29AM 28.7370 -82.7250 317° Northwest 439 505 36,000  Level FlightAware
09:30AM 28.7900 -82.7820 317° Northwest 438 504 36,000  Level FlightAware
09:30AM 28.8410 -82.8360 317° Northwest 437 503 36,000  Level FlightAware
09:31AM 28.8940 -82.8920 317° Northwest 437 503 36,000  Level FlightAware
09:31AM 28.9440 -82.9460 317° Northwest 437 503 36,000  Level FlightAware
09:32AM 28.9990 -83.0040 317° Northwest 438 504 36,000  Level FlightAware
09:32AM 29.0510 -83.0600 317° Northwest 437 503 36,000  Level FlightAware
09:33AM 29.1050 -83.1180 317° Northwest 437 503 36,000  Level FlightAware
09:34AM 29.1500 -83.1660 317° Northwest 437 503 36,000  Level FlightAware
09:34AM 29.2030 -83.2230 317° Northwest 437 503 36,000  Level FlightAware
09:35AM 29.2520 -83.2760 317° Northwest 438 504 36,000  Level FlightAware
09:35AM 29.3110 -83.3390 317° Northwest 439 505 36,000  Level FlightAware
09:36AM 29.3620 -83.3940 317° Northwest 439 505 36,000  Level FlightAware
09:37AM 29.4120 -83.4490 316° Northwest 441 507 36,000  Level FlightAware
09:37AM 29.4670 -83.5080 317° Northwest 441 507 36,000  Level FlightAware
09:38AM 29.5180 -83.5630 317° Northwest 441 507 36,000  Level FlightAware
09:38AM 29.5690 -83.6190 316° Northwest 442 509 36,000  Level FlightAware
09:39AM 29.6230 -83.6770 317° Northwest 442 509 36,000  Level FlightAware
09:39AM 29.6700 -83.7290 316° Northwest 442 509 36,000  Level FlightAware